sensor_id;sensor_type;location;lat;lon;timestamp;P1;durP1;ratioP1;P2;durP2;ratioP2
43580;SDS011;29175;51.030;4.606;2023-04-05T00:01:33;32.25;;;16.85;;
43580;SDS011;29175;51.030;4.606;2023-04-05T00:04:00;40.30;;;16.58;;
43580;SDS011;29175;51.030;4.606;2023-04-05T00:06:27;38.55;;;16.58;;
43580;SDS011;29175;51.030;4.606;2023-04-05T00:08:56;38.10;;;15.10;;
43580;SDS011;29175;51.030;4.606;2023-04-05T00:13:55;37.53;;;15.95;;
43580;SDS011;29175;51.030;4.606;2023-04-05T00:16:21;38.05;;;16.13;;
43580;SDS011;29175;51.030;4.606;2023-04-05T00:18:47;38.90;;;17.80;;
43580;SDS011;29175;51.030;4.606;2023-04-05T00:21:16;44.53;;;17.47;;
43580;SDS011;29175;51.030;4.606;2023-04-05T00:26:13;32.90;;;15.43;;
43580;SDS011;29175;51.030;4.606;2023-04-05T00:28:38;39.60;;;14.52;;
43580;SDS011;29175;51.030;4.606;2023-04-05T00:31:04;41.45;;;14.98;;
43580;SDS011;29175;51.030;4.606;2023-04-05T00:33:31;36.35;;;15.18;;
43580;SDS011;29175;51.030;4.606;2023-04-05T00:35:56;31.25;;;15.77;;
43580;SDS011;29175;51.030;4.606;2023-04-05T00:38:22;29.20;;;14.43;;
43580;SDS011;29175;51.030;4.606;2023-04-05T00:40:48;36.83;;;16.52;;
43580;SDS011;29175;51.030;4.606;2023-04-05T00:43:14;36.45;;;15.82;;
43580;SDS011;29175;51.030;4.606;2023-04-05T00:45:40;39.78;;;16.67;;
43580;SDS011;29175;51.030;4.606;2023-04-05T00:48:06;39.00;;;16.80;;
43580;SDS011;29175;51.030;4.606;2023-04-05T00:50:33;39.88;;;16.13;;
43580;SDS011;29175;51.030;4.606;2023-04-05T00:52:59;34.95;;;14.82;;
43580;SDS011;29175;51.030;4.606;2023-04-05T00:55:25;36.63;;;15.95;;
43580;SDS011;29175;51.030;4.606;2023-04-05T00:57:54;33.50;;;16.17;;
43580;SDS011;29175;51.030;4.606;2023-04-05T01:00:20;39.47;;;16.83;;
43580;SDS011;29175;51.030;4.606;2023-04-05T01:02:59;33.40;;;15.15;;
43580;SDS011;29175;51.030;4.606;2023-04-05T01:05:46;35.03;;;16.10;;
43580;SDS011;29175;51.030;4.606;2023-04-05T01:08:21;34.65;;;16.73;;
43580;SDS011;29175;51.030;4.606;2023-04-05T01:10:59;37.17;;;17.00;;
43580;SDS011;29175;51.030;4.606;2023-04-05T01:13:29;36.30;;;17.05;;
43580;SDS011;29175;51.030;4.606;2023-04-05T01:15:56;38.58;;;17.67;;
43580;SDS011;29175;51.030;4.606;2023-04-05T01:18:22;40.05;;;16.52;;
43580;SDS011;29175;51.030;4.606;2023-04-05T01:20:50;35.72;;;16.42;;
43580;SDS011;29175;51.030;4.606;2023-04-05T01:23:35;45.63;;;17.67;;
43580;SDS011;29175;51.030;4.606;2023-04-05T01:34:24;39.80;;;17.33;;
43580;SDS011;29175;51.030;4.606;2023-04-05T01:37:01;42.78;;;17.92;;
43580;SDS011;29175;51.030;4.606;2023-04-05T01:39:35;52.80;;;19.05;;
43580;SDS011;29175;51.030;4.606;2023-04-05T01:42:02;37.42;;;16.40;;
43580;SDS011;29175;51.030;4.606;2023-04-05T01:44:28;46.95;;;19.60;;
43580;SDS011;29175;51.030;4.606;2023-04-05T01:46:54;48.38;;;20.17;;
43580;SDS011;29175;51.030;4.606;2023-04-05T01:49:20;42.72;;;18.80;;
43580;SDS011;29175;51.030;4.606;2023-04-05T01:51:47;41.08;;;17.17;;
43580;SDS011;29175;51.030;4.606;2023-04-05T01:54:12;34.78;;;16.65;;
43580;SDS011;29175;51.030;4.606;2023-04-05T01:56:38;50.45;;;19.10;;
43580;SDS011;29175;51.030;4.606;2023-04-05T01:59:05;40.47;;;18.10;;
43580;SDS011;29175;51.030;4.606;2023-04-05T02:01:30;37.65;;;16.58;;
43580;SDS011;29175;51.030;4.606;2023-04-05T02:03:56;39.88;;;17.15;;
43580;SDS011;29175;51.030;4.606;2023-04-05T02:06:22;33.28;;;16.73;;
43580;SDS011;29175;51.030;4.606;2023-04-05T02:08:48;36.08;;;17.05;;
43580;SDS011;29175;51.030;4.606;2023-04-05T02:11:14;45.08;;;17.92;;
43580;SDS011;29175;51.030;4.606;2023-04-05T02:13:39;34.88;;;16.92;;
43580;SDS011;29175;51.030;4.606;2023-04-05T02:16:05;43.03;;;17.83;;
43580;SDS011;29175;51.030;4.606;2023-04-05T02:18:31;44.83;;;18.92;;
43580;SDS011;29175;51.030;4.606;2023-04-05T02:21:00;43.00;;;18.67;;
43580;SDS011;29175;51.030;4.606;2023-04-05T02:23:30;45.08;;;18.75;;
43580;SDS011;29175;51.030;4.606;2023-04-05T02:25:57;39.85;;;18.48;;
43580;SDS011;29175;51.030;4.606;2023-04-05T02:28:23;42.70;;;19.77;;
43580;SDS011;29175;51.030;4.606;2023-04-05T02:30:49;51.75;;;18.80;;
43580;SDS011;29175;51.030;4.606;2023-04-05T02:33:15;43.03;;;18.90;;
43580;SDS011;29175;51.030;4.606;2023-04-05T02:35:41;44.38;;;19.92;;
43580;SDS011;29175;51.030;4.606;2023-04-05T02:38:07;44.83;;;18.13;;
43580;SDS011;29175;51.030;4.606;2023-04-05T02:40:33;44.28;;;17.50;;
43580;SDS011;29175;51.030;4.606;2023-04-05T02:42:59;41.92;;;18.83;;
43580;SDS011;29175;51.030;4.606;2023-04-05T02:45:26;43.50;;;16.50;;
43580;SDS011;29175;51.030;4.606;2023-04-05T02:47:52;37.03;;;17.63;;
43580;SDS011;29175;51.030;4.606;2023-04-05T02:50:18;43.58;;;17.80;;
43580;SDS011;29175;51.030;4.606;2023-04-05T02:52:48;42.80;;;15.95;;
43580;SDS011;29175;51.030;4.606;2023-04-05T02:55:14;33.42;;;16.70;;
43580;SDS011;29175;51.030;4.606;2023-04-05T02:57:42;46.25;;;17.88;;
43580;SDS011;29175;51.030;4.606;2023-04-05T03:00:08;39.00;;;17.83;;
43580;SDS011;29175;51.030;4.606;2023-04-05T03:02:36;42.58;;;17.23;;
43580;SDS011;29175;51.030;4.606;2023-04-05T03:05:04;39.78;;;17.52;;
43580;SDS011;29175;51.030;4.606;2023-04-05T03:07:31;41.28;;;18.52;;
43580;SDS011;29175;51.030;4.606;2023-04-05T03:09:57;41.15;;;17.30;;
43580;SDS011;29175;51.030;4.606;2023-04-05T03:12:23;40.75;;;16.92;;
43580;SDS011;29175;51.030;4.606;2023-04-05T03:14:49;39.97;;;17.75;;
43580;SDS011;29175;51.030;4.606;2023-04-05T03:17:15;43.97;;;17.70;;
43580;SDS011;29175;51.030;4.606;2023-04-05T03:19:41;44.20;;;17.48;;
43580;SDS011;29175;51.030;4.606;2023-04-05T03:22:07;40.28;;;18.05;;
43580;SDS011;29175;51.030;4.606;2023-04-05T03:24:33;51.00;;;19.85;;
43580;SDS011;29175;51.030;4.606;2023-04-05T03:27:02;60.70;;;20.45;;
43580;SDS011;29175;51.030;4.606;2023-04-05T03:29:30;43.97;;;19.05;;
43580;SDS011;29175;51.030;4.606;2023-04-05T03:31:59;42.65;;;19.13;;
43580;SDS011;29175;51.030;4.606;2023-04-05T03:34:25;41.30;;;17.60;;
43580;SDS011;29175;51.030;4.606;2023-04-05T03:36:54;44.50;;;17.08;;
43580;SDS011;29175;51.030;4.606;2023-04-05T03:39:20;43.30;;;18.30;;
43580;SDS011;29175;51.030;4.606;2023-04-05T03:41:46;48.15;;;19.30;;
43580;SDS011;29175;51.030;4.606;2023-04-05T03:44:12;46.58;;;19.17;;
43580;SDS011;29175;51.030;4.606;2023-04-05T03:46:37;50.10;;;19.70;;
43580;SDS011;29175;51.030;4.606;2023-04-05T03:49:03;46.53;;;18.35;;
43580;SDS011;29175;51.030;4.606;2023-04-05T03:51:30;48.97;;;18.45;;
43580;SDS011;29175;51.030;4.606;2023-04-05T03:53:56;51.55;;;20.20;;
43580;SDS011;29175;51.030;4.606;2023-04-05T03:56:22;42.33;;;19.33;;
43580;SDS011;29175;51.030;4.606;2023-04-05T03:58:50;51.08;;;19.70;;
43580;SDS011;29175;51.030;4.606;2023-04-05T04:01:17;51.25;;;18.80;;
43580;SDS011;29175;51.030;4.606;2023-04-05T04:03:43;53.35;;;19.17;;
43580;SDS011;29175;51.030;4.606;2023-04-05T04:06:08;51.17;;;19.70;;
43580;SDS011;29175;51.030;4.606;2023-04-05T04:08:34;41.33;;;18.42;;
43580;SDS011;29175;51.030;4.606;2023-04-05T04:11:00;46.55;;;19.25;;
43580;SDS011;29175;51.030;4.606;2023-04-05T04:13:26;44.67;;;19.08;;
43580;SDS011;29175;51.030;4.606;2023-04-05T04:15:52;47.20;;;19.52;;
43580;SDS011;29175;51.030;4.606;2023-04-05T04:18:17;52.72;;;20.65;;
43580;SDS011;29175;51.030;4.606;2023-04-05T04:20:43;50.10;;;20.08;;
43580;SDS011;29175;51.030;4.606;2023-04-05T04:23:09;43.08;;;17.80;;
43580;SDS011;29175;51.030;4.606;2023-04-05T04:25:35;46.80;;;18.38;;
43580;SDS011;29175;51.030;4.606;2023-04-05T04:28:04;48.22;;;20.23;;
43580;SDS011;29175;51.030;4.606;2023-04-05T04:30:34;44.50;;;19.83;;
43580;SDS011;29175;51.030;4.606;2023-04-05T04:33:00;43.33;;;18.58;;
43580;SDS011;29175;51.030;4.606;2023-04-05T04:35:29;47.53;;;18.58;;
43580;SDS011;29175;51.030;4.606;2023-04-05T04:38:02;45.95;;;19.20;;
43580;SDS011;29175;51.030;4.606;2023-04-05T04:40:36;41.58;;;18.70;;
43580;SDS011;29175;51.030;4.606;2023-04-05T04:43:07;43.13;;;18.08;;
43580;SDS011;29175;51.030;4.606;2023-04-05T04:45:34;47.83;;;19.67;;
43580;SDS011;29175;51.030;4.606;2023-04-05T04:48:02;52.42;;;20.35;;
43580;SDS011;29175;51.030;4.606;2023-04-05T04:50:29;58.50;;;20.02;;
43580;SDS011;29175;51.030;4.606;2023-04-05T04:52:57;56.50;;;20.27;;
43580;SDS011;29175;51.030;4.606;2023-04-05T04:55:23;53.10;;;20.48;;
43580;SDS011;29175;51.030;4.606;2023-04-05T04:57:50;47.53;;;19.58;;
43580;SDS011;29175;51.030;4.606;2023-04-05T05:00:16;47.97;;;20.52;;
43580;SDS011;29175;51.030;4.606;2023-04-05T05:02:43;44.15;;;18.05;;
43580;SDS011;29175;51.030;4.606;2023-04-05T05:05:08;50.60;;;18.55;;
43580;SDS011;29175;51.030;4.606;2023-04-05T05:07:35;40.72;;;18.70;;
43580;SDS011;29175;51.030;4.606;2023-04-05T05:10:02;49.85;;;20.27;;
43580;SDS011;29175;51.030;4.606;2023-04-05T05:12:29;46.60;;;20.98;;
43580;SDS011;29175;51.030;4.606;2023-04-05T05:14:55;67.57;;;20.92;;
43580;SDS011;29175;51.030;4.606;2023-04-05T05:17:21;42.55;;;19.88;;
43580;SDS011;29175;51.030;4.606;2023-04-05T05:19:48;61.88;;;21.02;;
43580;SDS011;29175;51.030;4.606;2023-04-05T05:22:14;45.92;;;19.75;;
43580;SDS011;29175;51.030;4.606;2023-04-05T05:24:40;56.63;;;20.00;;
43580;SDS011;29175;51.030;4.606;2023-04-05T05:27:06;55.65;;;21.00;;
43580;SDS011;29175;51.030;4.606;2023-04-05T05:29:32;49.40;;;21.38;;
43580;SDS011;29175;51.030;4.606;2023-04-05T05:31:58;47.75;;;20.55;;
43580;SDS011;29175;51.030;4.606;2023-04-05T05:34:23;53.38;;;20.85;;
43580;SDS011;29175;51.030;4.606;2023-04-05T05:36:49;53.13;;;21.23;;
43580;SDS011;29175;51.030;4.606;2023-04-05T05:39:18;45.65;;;20.50;;
43580;SDS011;29175;51.030;4.606;2023-04-05T05:41:44;47.17;;;20.15;;
43580;SDS011;29175;51.030;4.606;2023-04-05T05:44:10;42.83;;;20.00;;
43580;SDS011;29175;51.030;4.606;2023-04-05T05:46:36;50.40;;;20.25;;
43580;SDS011;29175;51.030;4.606;2023-04-05T05:49:02;52.83;;;21.15;;
43580;SDS011;29175;51.030;4.606;2023-04-05T05:51:28;48.47;;;19.88;;
43580;SDS011;29175;51.030;4.606;2023-04-05T05:53:54;50.53;;;18.92;;
43580;SDS011;29175;51.030;4.606;2023-04-05T05:56:19;45.20;;;20.13;;
43580;SDS011;29175;51.030;4.606;2023-04-05T05:58:45;63.80;;;22.08;;
43580;SDS011;29175;51.030;4.606;2023-04-05T06:01:12;55.50;;;20.25;;
43580;SDS011;29175;51.030;4.606;2023-04-05T06:03:38;52.00;;;21.40;;
43580;SDS011;29175;51.030;4.606;2023-04-05T06:06:04;49.03;;;21.80;;
43580;SDS011;29175;51.030;4.606;2023-04-05T06:08:32;50.13;;;20.98;;
43580;SDS011;29175;51.030;4.606;2023-04-05T06:10:58;50.00;;;21.67;;
43580;SDS011;29175;51.030;4.606;2023-04-05T06:13:24;48.58;;;20.33;;
43580;SDS011;29175;51.030;4.606;2023-04-05T06:15:50;56.50;;;21.63;;
43580;SDS011;29175;51.030;4.606;2023-04-05T06:18:16;61.72;;;22.02;;
43580;SDS011;29175;51.030;4.606;2023-04-05T06:20:42;58.13;;;20.77;;
43580;SDS011;29175;51.030;4.606;2023-04-05T06:23:09;59.85;;;21.75;;
43580;SDS011;29175;51.030;4.606;2023-04-05T06:25:38;52.95;;;20.73;;
43580;SDS011;29175;51.030;4.606;2023-04-05T06:28:04;50.30;;;20.05;;
43580;SDS011;29175;51.030;4.606;2023-04-05T06:30:31;58.72;;;17.55;;
43580;SDS011;29175;51.030;4.606;2023-04-05T06:32:58;52.30;;;15.93;;
43580;SDS011;29175;51.030;4.606;2023-04-05T06:35:24;43.67;;;15.32;;
43580;SDS011;29175;51.030;4.606;2023-04-05T06:37:50;46.85;;;15.05;;
43580;SDS011;29175;51.030;4.606;2023-04-05T06:40:17;37.47;;;15.43;;
43580;SDS011;29175;51.030;4.606;2023-04-05T06:42:43;40.47;;;14.55;;
43580;SDS011;29175;51.030;4.606;2023-04-05T06:45:10;40.20;;;15.73;;
43580;SDS011;29175;51.030;4.606;2023-04-05T06:47:39;41.13;;;14.75;;
43580;SDS011;29175;51.030;4.606;2023-04-05T06:50:06;31.00;;;14.85;;
43580;SDS011;29175;51.030;4.606;2023-04-05T06:52:33;36.22;;;14.85;;
43580;SDS011;29175;51.030;4.606;2023-04-05T06:54:59;64.97;;;16.85;;
43580;SDS011;29175;51.030;4.606;2023-04-05T06:57:25;34.83;;;14.02;;
43580;SDS011;29175;51.030;4.606;2023-04-05T06:59:51;40.15;;;15.95;;
43580;SDS011;29175;51.030;4.606;2023-04-05T07:02:18;37.28;;;16.77;;
43580;SDS011;29175;51.030;4.606;2023-04-05T07:04:44;29.55;;;13.35;;
43580;SDS011;29175;51.030;4.606;2023-04-05T07:07:11;35.55;;;17.10;;
43580;SDS011;29175;51.030;4.606;2023-04-05T07:09:37;33.33;;;16.33;;
43580;SDS011;29175;51.030;4.606;2023-04-05T07:12:03;39.50;;;18.23;;
43580;SDS011;29175;51.030;4.606;2023-04-05T07:14:30;39.00;;;16.33;;
43580;SDS011;29175;51.030;4.606;2023-04-05T07:16:57;37.88;;;17.25;;
43580;SDS011;29175;51.030;4.606;2023-04-05T07:19:23;38.80;;;18.75;;
43580;SDS011;29175;51.030;4.606;2023-04-05T07:21:49;36.00;;;18.63;;
43580;SDS011;29175;51.030;4.606;2023-04-05T07:24:14;37.50;;;17.65;;
43580;SDS011;29175;51.030;4.606;2023-04-05T07:26:40;38.47;;;17.13;;
43580;SDS011;29175;51.030;4.606;2023-04-05T07:29:06;35.45;;;18.08;;
43580;SDS011;29175;51.030;4.606;2023-04-05T07:31:33;42.25;;;17.27;;
43580;SDS011;29175;51.030;4.606;2023-04-05T07:33:59;42.72;;;17.92;;
43580;SDS011;29175;51.030;4.606;2023-04-05T07:36:25;42.53;;;18.58;;
43580;SDS011;29175;51.030;4.606;2023-04-05T07:38:52;41.10;;;17.50;;
43580;SDS011;29175;51.030;4.606;2023-04-05T07:41:19;33.95;;;16.00;;
43580;SDS011;29175;51.030;4.606;2023-04-05T07:43:45;37.95;;;15.95;;
43580;SDS011;29175;51.030;4.606;2023-04-05T07:46:11;29.70;;;15.40;;
43580;SDS011;29175;51.030;4.606;2023-04-05T07:48:36;32.00;;;16.00;;
43580;SDS011;29175;51.030;4.606;2023-04-05T07:51:03;35.92;;;16.02;;
43580;SDS011;29175;51.030;4.606;2023-04-05T07:53:29;34.08;;;15.55;;
43580;SDS011;29175;51.030;4.606;2023-04-05T07:55:55;32.55;;;15.23;;
43580;SDS011;29175;51.030;4.606;2023-04-05T07:58:21;37.15;;;16.13;;
43580;SDS011;29175;51.030;4.606;2023-04-05T08:00:47;29.60;;;14.70;;
43580;SDS011;29175;51.030;4.606;2023-04-05T08:03:13;36.28;;;14.68;;
43580;SDS011;29175;51.030;4.606;2023-04-05T08:05:39;36.13;;;14.30;;
43580;SDS011;29175;51.030;4.606;2023-04-05T08:08:05;32.03;;;14.07;;
43580;SDS011;29175;51.030;4.606;2023-04-05T08:10:36;27.92;;;13.48;;
43580;SDS011;29175;51.030;4.606;2023-04-05T08:13:03;38.60;;;14.15;;
43580;SDS011;29175;51.030;4.606;2023-04-05T08:15:33;26.08;;;12.65;;
43580;SDS011;29175;51.030;4.606;2023-04-05T08:18:00;24.55;;;12.98;;
43580;SDS011;29175;51.030;4.606;2023-04-05T08:20:26;20.88;;;11.02;;
43580;SDS011;29175;51.030;4.606;2023-04-05T08:22:52;20.23;;;11.25;;
43580;SDS011;29175;51.030;4.606;2023-04-05T08:25:17;20.05;;;10.23;;
43580;SDS011;29175;51.030;4.606;2023-04-05T08:27:43;22.55;;;11.15;;
43580;SDS011;29175;51.030;4.606;2023-04-05T08:30:09;19.63;;;10.77;;
43580;SDS011;29175;51.030;4.606;2023-04-05T08:32:35;16.95;;;9.43;;
43580;SDS011;29175;51.030;4.606;2023-04-05T08:35:01;18.63;;;9.65;;
43580;SDS011;29175;51.030;4.606;2023-04-05T08:37:27;20.25;;;9.35;;
43580;SDS011;29175;51.030;4.606;2023-04-05T08:39:53;20.23;;;9.02;;
43580;SDS011;29175;51.030;4.606;2023-04-05T08:43:02;19.55;;;9.60;;
43580;SDS011;29175;51.030;4.606;2023-04-05T08:45:10;16.88;;;7.85;;
43580;SDS011;29175;51.030;4.606;2023-04-05T08:47:38;16.08;;;7.78;;
43580;SDS011;29175;51.030;4.606;2023-04-05T08:50:06;18.15;;;8.15;;
43580;SDS011;29175;51.030;4.606;2023-04-05T08:52:34;18.80;;;8.18;;
43580;SDS011;29175;51.030;4.606;2023-04-05T08:55:03;25.05;;;8.73;;
43580;SDS011;29175;51.030;4.606;2023-04-05T08:57:30;18.15;;;8.32;;
43580;SDS011;29175;51.030;4.606;2023-04-05T08:59:56;19.35;;;8.18;;
43580;SDS011;29175;51.030;4.606;2023-04-05T09:02:25;19.60;;;7.75;;
43580;SDS011;29175;51.030;4.606;2023-04-05T09:04:52;18.58;;;8.40;;
43580;SDS011;29175;51.030;4.606;2023-04-05T09:07:18;23.98;;;8.57;;
43580;SDS011;29175;51.030;4.606;2023-04-05T09:09:46;13.85;;;7.75;;
43580;SDS011;29175;51.030;4.606;2023-04-05T09:12:15;20.08;;;8.40;;
43580;SDS011;29175;51.030;4.606;2023-04-05T09:14:41;15.57;;;6.93;;
43580;SDS011;29175;51.030;4.606;2023-04-05T09:17:07;16.30;;;7.50;;
43580;SDS011;29175;51.030;4.606;2023-04-05T09:19:34;15.32;;;7.40;;
43580;SDS011;29175;51.030;4.606;2023-04-05T09:22:04;17.42;;;7.82;;
43580;SDS011;29175;51.030;4.606;2023-04-05T09:24:38;11.02;;;5.63;;
43580;SDS011;29175;51.030;4.606;2023-04-05T09:29:34;13.32;;;7.22;;
43580;SDS011;29175;51.030;4.606;2023-04-05T09:32:01;13.68;;;7.15;;
43580;SDS011;29175;51.030;4.606;2023-04-05T09:34:33;18.85;;;6.65;;
43580;SDS011;29175;51.030;4.606;2023-04-05T09:37:03;16.55;;;7.25;;
43580;SDS011;29175;51.030;4.606;2023-04-05T09:39:39;13.75;;;6.45;;
43580;SDS011;29175;51.030;4.606;2023-04-05T09:47:29;14.57;;;7.10;;
43580;SDS011;29175;51.030;4.606;2023-04-05T09:50:00;13.45;;;6.85;;
43580;SDS011;29175;51.030;4.606;2023-04-05T09:52:30;15.50;;;7.43;;
43580;SDS011;29175;51.030;4.606;2023-04-05T09:54:57;19.63;;;8.15;;
43580;SDS011;29175;51.030;4.606;2023-04-05T09:57:26;16.38;;;8.25;;
43580;SDS011;29175;51.030;4.606;2023-04-05T09:59:53;15.13;;;8.00;;
43580;SDS011;29175;51.030;4.606;2023-04-05T10:02:23;15.32;;;7.30;;
43580;SDS011;29175;51.030;4.606;2023-04-05T10:07:16;20.23;;;8.57;;
43580;SDS011;29175;51.030;4.606;2023-04-05T10:09:44;16.50;;;7.72;;
43580;SDS011;29175;51.030;4.606;2023-04-05T10:12:25;18.73;;;8.45;;
43580;SDS011;29175;51.030;4.606;2023-04-05T10:14:52;18.85;;;9.50;;
43580;SDS011;29175;51.030;4.606;2023-04-05T10:17:27;18.00;;;9.63;;
43580;SDS011;29175;51.030;4.606;2023-04-05T10:22:59;14.75;;;8.32;;
43580;SDS011;29175;51.030;4.606;2023-04-05T10:33:45;16.33;;;8.30;;
43580;SDS011;29175;51.030;4.606;2023-04-05T10:36:21;22.65;;;9.50;;
43580;SDS011;29175;51.030;4.606;2023-04-05T10:41:54;18.15;;;9.20;;
43580;SDS011;29175;51.030;4.606;2023-04-05T10:44:35;18.67;;;8.43;;
43580;SDS011;29175;51.030;4.606;2023-04-05T10:47:03;21.83;;;8.77;;
43580;SDS011;29175;51.030;4.606;2023-04-05T10:49:45;15.90;;;8.25;;
43580;SDS011;29175;51.030;4.606;2023-04-05T10:52:13;19.77;;;8.10;;
43580;SDS011;29175;51.030;4.606;2023-04-05T10:54:40;21.25;;;7.90;;
43580;SDS011;29175;51.030;4.606;2023-04-05T10:57:07;19.38;;;7.22;;
43580;SDS011;29175;51.030;4.606;2023-04-05T10:59:34;20.38;;;8.77;;
43580;SDS011;29175;51.030;4.606;2023-04-05T11:02:04;19.23;;;8.93;;
43580;SDS011;29175;51.030;4.606;2023-04-05T11:04:32;16.65;;;8.65;;
43580;SDS011;29175;51.030;4.606;2023-04-05T11:07:31;16.75;;;9.40;;
43580;SDS011;29175;51.030;4.606;2023-04-05T11:18:10;23.20;;;10.02;;
43580;SDS011;29175;51.030;4.606;2023-04-05T11:20:49;24.80;;;10.23;;
43580;SDS011;29175;51.030;4.606;2023-04-05T11:23:17;19.98;;;9.07;;
43580;SDS011;29175;51.030;4.606;2023-04-05T11:25:45;23.92;;;9.35;;
43580;SDS011;29175;51.030;4.606;2023-04-05T11:28:27;23.15;;;9.77;;
43580;SDS011;29175;51.030;4.606;2023-04-05T11:30:55;19.63;;;9.65;;
43580;SDS011;29175;51.030;4.606;2023-04-05T11:33:35;20.48;;;9.95;;
43580;SDS011;29175;51.030;4.606;2023-04-05T11:36:02;21.05;;;10.27;;
43580;SDS011;29175;51.030;4.606;2023-04-05T11:38:28;19.65;;;9.85;;
43580;SDS011;29175;51.030;4.606;2023-04-05T11:43:45;22.95;;;9.88;;
43580;SDS011;29175;51.030;4.606;2023-04-05T11:46:12;24.35;;;9.82;;
43580;SDS011;29175;51.030;4.606;2023-04-05T11:48:40;20.38;;;9.32;;
43580;SDS011;29175;51.030;4.606;2023-04-05T11:51:09;22.42;;;10.18;;
43580;SDS011;29175;51.030;4.606;2023-04-05T11:53:35;24.95;;;10.60;;
43580;SDS011;29175;51.030;4.606;2023-04-05T11:56:06;24.45;;;10.35;;
43580;SDS011;29175;51.030;4.606;2023-04-05T11:58:34;24.17;;;10.45;;
43580;SDS011;29175;51.030;4.606;2023-04-05T12:01:01;19.02;;;8.80;;
43580;SDS011;29175;51.030;4.606;2023-04-05T12:03:28;23.65;;;9.93;;
43580;SDS011;29175;51.030;4.606;2023-04-05T12:05:55;21.52;;;9.80;;
43580;SDS011;29175;51.030;4.606;2023-04-05T12:08:23;27.27;;;10.07;;
43580;SDS011;29175;51.030;4.606;2023-04-05T12:11:01;24.13;;;10.25;;
43580;SDS011;29175;51.030;4.606;2023-04-05T12:13:27;22.30;;;9.95;;
43580;SDS011;29175;51.030;4.606;2023-04-05T12:15:58;23.67;;;9.70;;
43580;SDS011;29175;51.030;4.606;2023-04-05T12:18:25;20.67;;;9.27;;
43580;SDS011;29175;51.030;4.606;2023-04-05T12:20:53;23.48;;;10.38;;
43580;SDS011;29175;51.030;4.606;2023-04-05T12:23:22;21.63;;;9.32;;
43580;SDS011;29175;51.030;4.606;2023-04-05T12:25:49;20.38;;;9.50;;
43580;SDS011;29175;51.030;4.606;2023-04-05T12:28:17;21.00;;;9.68;;
43580;SDS011;29175;51.030;4.606;2023-04-05T12:30:53;25.10;;;9.15;;
43580;SDS011;29175;51.030;4.606;2023-04-05T12:33:30;21.20;;;9.43;;
43580;SDS011;29175;51.030;4.606;2023-04-05T12:35:58;24.40;;;10.45;;
43580;SDS011;29175;51.030;4.606;2023-04-05T12:38:29;23.48;;;10.38;;
43580;SDS011;29175;51.030;4.606;2023-04-05T12:40:58;29.55;;;11.13;;
43580;SDS011;29175;51.030;4.606;2023-04-05T12:43:36;27.85;;;10.68;;
43580;SDS011;29175;51.030;4.606;2023-04-05T12:46:08;30.27;;;10.02;;
43580;SDS011;29175;51.030;4.606;2023-04-05T12:48:41;24.15;;;10.10;;
43580;SDS011;29175;51.030;4.606;2023-04-05T12:51:15;26.88;;;11.45;;
43580;SDS011;29175;51.030;4.606;2023-04-05T12:53:45;21.80;;;9.98;;
43580;SDS011;29175;51.030;4.606;2023-04-05T12:56:12;21.70;;;10.00;;
43580;SDS011;29175;51.030;4.606;2023-04-05T12:58:39;25.63;;;10.38;;
43580;SDS011;29175;51.030;4.606;2023-04-05T13:01:05;20.73;;;9.35;;
43580;SDS011;29175;51.030;4.606;2023-04-05T13:03:31;25.27;;;11.00;;
43580;SDS011;29175;51.030;4.606;2023-04-05T13:05:57;25.58;;;10.10;;
43580;SDS011;29175;51.030;4.606;2023-04-05T13:08:23;24.45;;;10.55;;
43580;SDS011;29175;51.030;4.606;2023-04-05T13:10:51;17.48;;;8.70;;
43580;SDS011;29175;51.030;4.606;2023-04-05T13:13:16;23.67;;;10.45;;
43580;SDS011;29175;51.030;4.606;2023-04-05T13:15:45;24.55;;;10.45;;
43580;SDS011;29175;51.030;4.606;2023-04-05T13:18:11;27.63;;;10.45;;
43580;SDS011;29175;51.030;4.606;2023-04-05T13:20:43;25.58;;;10.45;;
43580;SDS011;29175;51.030;4.606;2023-04-05T13:23:09;24.10;;;10.38;;
43580;SDS011;29175;51.030;4.606;2023-04-05T13:25:37;26.05;;;10.18;;
43580;SDS011;29175;51.030;4.606;2023-04-05T13:28:03;24.15;;;9.63;;
43580;SDS011;29175;51.030;4.606;2023-04-05T13:30:29;26.42;;;10.95;;
43580;SDS011;29175;51.030;4.606;2023-04-05T13:32:56;21.77;;;9.02;;
43580;SDS011;29175;51.030;4.606;2023-04-05T13:35:22;26.00;;;10.82;;
43580;SDS011;29175;51.030;4.606;2023-04-05T13:37:47;22.02;;;10.05;;
43580;SDS011;29175;51.030;4.606;2023-04-05T13:40:16;24.45;;;10.15;;
43580;SDS011;29175;51.030;4.606;2023-04-05T13:42:42;26.23;;;10.25;;
43580;SDS011;29175;51.030;4.606;2023-04-05T13:45:08;24.10;;;10.25;;
43580;SDS011;29175;51.030;4.606;2023-04-05T13:47:34;21.15;;;9.65;;
43580;SDS011;29175;51.030;4.606;2023-04-05T13:50:00;24.25;;;10.18;;
43580;SDS011;29175;51.030;4.606;2023-04-05T13:52:27;22.05;;;9.32;;
43580;SDS011;29175;51.030;4.606;2023-04-05T13:54:53;25.13;;;10.32;;
43580;SDS011;29175;51.030;4.606;2023-04-05T13:57:18;25.55;;;10.27;;
43580;SDS011;29175;51.030;4.606;2023-04-05T13:59:44;20.88;;;9.68;;
43580;SDS011;29175;51.030;4.606;2023-04-05T14:02:10;26.67;;;10.60;;
43580;SDS011;29175;51.030;4.606;2023-04-05T14:04:37;22.60;;;9.25;;
43580;SDS011;29175;51.030;4.606;2023-04-05T14:07:03;24.63;;;9.98;;
43580;SDS011;29175;51.030;4.606;2023-04-05T14:09:30;21.65;;;9.75;;
43580;SDS011;29175;51.030;4.606;2023-04-05T14:11:57;24.42;;;9.95;;
43580;SDS011;29175;51.030;4.606;2023-04-05T14:14:25;27.20;;;10.90;;
43580;SDS011;29175;51.030;4.606;2023-04-05T14:16:50;22.83;;;9.38;;
43580;SDS011;29175;51.030;4.606;2023-04-05T14:19:16;24.38;;;10.00;;
43580;SDS011;29175;51.030;4.606;2023-04-05T14:21:43;27.73;;;11.02;;
43580;SDS011;29175;51.030;4.606;2023-04-05T14:24:10;21.58;;;9.63;;
43580;SDS011;29175;51.030;4.606;2023-04-05T14:26:36;25.70;;;10.63;;
43580;SDS011;29175;51.030;4.606;2023-04-05T14:29:02;20.65;;;10.15;;
43580;SDS011;29175;51.030;4.606;2023-04-05T14:31:28;24.42;;;9.98;;
43580;SDS011;29175;51.030;4.606;2023-04-05T14:33:53;21.70;;;10.13;;
43580;SDS011;29175;51.030;4.606;2023-04-05T14:36:19;21.88;;;9.35;;
43580;SDS011;29175;51.030;4.606;2023-04-05T14:38:45;21.67;;;9.63;;
43580;SDS011;29175;51.030;4.606;2023-04-05T14:41:11;23.45;;;9.75;;
43580;SDS011;29175;51.030;4.606;2023-04-05T14:43:38;20.88;;;10.68;;
43580;SDS011;29175;51.030;4.606;2023-04-05T14:46:04;21.48;;;11.13;;
43580;SDS011;29175;51.030;4.606;2023-04-05T14:48:29;28.23;;;11.43;;
43580;SDS011;29175;51.030;4.606;2023-04-05T14:50:57;25.92;;;10.32;;
43580;SDS011;29175;51.030;4.606;2023-04-05T14:53:23;22.88;;;10.25;;
43580;SDS011;29175;51.030;4.606;2023-04-05T14:55:49;30.75;;;11.48;;
43580;SDS011;29175;51.030;4.606;2023-04-05T14:58:15;20.17;;;9.48;;
43580;SDS011;29175;51.030;4.606;2023-04-05T15:00:41;26.77;;;10.80;;
43580;SDS011;29175;51.030;4.606;2023-04-05T15:03:08;32.55;;;11.68;;
43580;SDS011;29175;51.030;4.606;2023-04-05T15:05:34;30.55;;;11.80;;
43580;SDS011;29175;51.030;4.606;2023-04-05T15:08:00;25.80;;;10.85;;
43580;SDS011;29175;51.030;4.606;2023-04-05T15:10:26;26.38;;;10.35;;
43580;SDS011;29175;51.030;4.606;2023-04-05T15:12:52;27.50;;;10.00;;
43580;SDS011;29175;51.030;4.606;2023-04-05T15:15:18;22.88;;;10.77;;
43580;SDS011;29175;51.030;4.606;2023-04-05T15:17:44;28.30;;;11.00;;